Danbury Muni Information

FAA: DXR - ICAO: KDXR

Danbury Muni (Airport) Location

State Connecticut
County Fairfield
City Danbury
Danbury Muni (Airport) is 3 miles southwest of Danbury, CT.
Latitude 41-22-17.5000N
Longitude 073-28-55.9000W
Elevation 456ft

Danbury Muni METARs

METAR KDXR 070853Z AUTO 26005KT 10SM CLR 04/M07 A2996 RMK AO2 SLP148 T00391072 51027
Altimeter 29.96"
Temperature 3.9°C (39.0°F)
Wind 260° at 5KT
Clouds Skies are clear.
Visibility 10.0mi
Time observed: 2021-12-07T08:53:00Z

Danbury Muni (Airport) Details

Status Operational
Activation April 1940
Ownership Public
Usage Public
Chart NEW YORK
ATC on-site Yes
Beacon schedule sunset-sunrise
Beacon color clear green

Danbury Muni (Airport) Contacts

Owner CITY OF DANBURY
Owner address CITY HALL, DANBURY, CT 06810
Owner phone 203-797-4624
Manager JIM SKI
Manager address 31 CHESTNUT HILL RD, COLCHESTER, CT 06415
Manager phone (860) 334-3974

Danbury Muni Radio Frequencies

Danbury Muni (Airport) Radio Frequencies

UNICOM 122.95
Common traffic advisory frequency (CTAF) 119.4